Arklow Rock — PBZM — position and weather

sailwx.info

Track history (hours):
 
Tides and Currents Weather Stations Pressure Air Temp Water Temp Dewpoint Dewpoint Depression Visibility Wind Speed Wind Dir Waves Ship Positions

Arklow Rock

Last reported at 2017-May-26 08:57 UTC. Time now 2017-May-26 09:21 UTC.
Position N 43°35' W 005°41'.

Length 90 m; draft 3.8 m.

Type: Cargo ship. MMSI: 246002000.

Date/timePositionNaut miles runAvg speedWind from/ knotsBaromVisibWave heightAir tempDewpointWater temp
2017-May-26 08:57N 43°35' W 005°41'0 0.0
2017-May-26 08:15N 43°35' W 005°41'0 0.0
2017-May-26 07:57N 43°35' W 005°41'0 0.0
2017-May-26 07:27N 43°35' W 005°41'0 0.0
2017-May-26 06:57N 43°35' W 005°41'0 0.0
2017-May-26 06:27N 43°35' W 005°41'0 0.0
2017-May-26 05:57N 43°35' W 005°41'0 0.0
2017-May-26 05:21N 43°35' W 005°41'0 0.0
2017-May-26 04:51N 43°35' W 005°41'0 0.0
2017-May-26 04:09N 43°35' W 005°41'0 0.0
2017-May-26 03:57N 43°35' W 005°41'0 0.0
2017-May-26 03:27N 43°35' W 005°41'0 0.0
2017-May-26 02:57N 43°35' W 005°41'0 0.0
2017-May-26 02:27N 43°35' W 005°41'0 0.0
2017-May-26 01:57N 43°35' W 005°41'0 0.0
2017-May-26 01:27N 43°35' W 005°41'0 0.0
2017-May-26 00:57N 43°35' W 005°41'0 0.0
2017-May-25 20:03N 43°35' W 005°41'0 0.0
2017-May-25 19:45N 43°35' W 005°41'0 0.0
2017-May-25 19:27N 43°35' W 005°41'0 0.0
2017-May-25 18:57N 43°35' W 005°41'0 0.0
2017-May-25 18:09N 43°35' W 005°41'0 0.0
2017-May-25 17:57N 43°35' W 005°41'0 0.0
2017-May-25 17:21N 43°35' W 005°41'0 0.0
2017-May-25 16:51N 43°35' W 005°41'0 0.0
2017-May-25 16:27N 43°35' W 005°41'0 0.0
2017-May-25 15:57N 43°35' W 005°41'0 0.0
2017-May-25 15:09N 43°35' W 005°41'0 0.0
2017-May-25 14:39N 43°35' W 005°41'0 0.0
2017-May-25 14:27N 43°35' W 005°41'0 0.0
2017-May-25 13:21N 43°35' W 005°41'0 0.0
2017-May-25 12:57N 43°35' W 005°41'0 0.0
2017-May-25 12:27N 43°35' W 005°41'0 0.0
2017-May-25 11:51N 43°35' W 005°41'0 0.0
2017-May-25 11:26N 43°35' W 005°41'0 0.0
2017-May-25 10:56N 43°35' W 005°41'0 0.0
2017-May-25 10:26N 43°35' W 005°41'0 0.0
2017-May-25 09:50N 43°35' W 005°41'0 0.0
2017-May-25 09:26N 43°35' W 005°41'0 0.0
2017-May-25 08:50N 43°35' W 005°41'0 0.0
2017-May-25 08:20N 43°35' W 005°41'0 0.0
2017-May-25 07:56N 43°35' W 005°41'0 0.0
2017-May-25 07:26N 43°35' W 005°41'0 0.0
2017-May-25 06:50N 43°35' W 005°41'0 0.0
2017-May-25 06:26N 43°35' W 005°41'0 0.0
2017-May-25 06:00N 43°35' W 005°41'1 2.1
2017-May-25 05:30N 43°36' W 005°40'3 5.3
2017-May-25 05:01N 43°38' W 005°40'3 5.7
2017-May-25 04:30N 43°41' W 005°41'6 9.8
2017-May-25 03:56N 43°47' W 005°41'4 9.9
2017-May-25 03:30N 43°51' W 005°41'710.1
2017-May-25 02:48N 43°58' W 005°42'28511.3
2017-May-24 01:31N 48°43' W 005°58'910.7
2017-May-24 00:41N 48°51' W 005°51'510.6
2017-May-24 00:11N 48°55' W 005°47'211.1
2017-May-23 23:59N 48°56' W 005°44'4212.3
2017-May-23 20:37N 49°18' W 004°49'6511.4
2017-May-23 14:55N 49°50' W 003°22'1511.4
2017-May-23 13:37N 49°58' W 003°03'212.2
2017-May-23 13:30N 49°59' W 003°01'612.5
2017-May-23 13:00N 50°01' W 002°52'713.2
2017-May-23 12:30N 50°03' W 002°42'6013.4
2017-May-23 08:02N 50°19' W 001°12'010.6
2017-May-23 08:00N 50°19' W 001°11'510.2
2017-May-23 07:30N 50°21' W 001°04'5 9.7
2017-May-23 07:00N 50°22' W 000°56'5 9.3
2017-May-23 06:30N 50°23' W 000°49'5 9.0
2017-May-23 06:00N 50°25' W 000°43'5 9.2
2017-May-23 05:30N 50°26' W 000°36'5 9.3
2017-May-23 04:56N 50°27' W 000°28'410.0
2017-May-23 04:30N 50°28' W 000°21'510.8
2017-May-23 04:00N 50°30' W 000°13'611.5
2017-May-23 03:30N 50°31' W 000°04'612.0
2017-May-23 03:00N 50°33' E 000°05'612.6
2017-May-23 02:30N 50°35' E 000°14'612.8
2017-May-23 02:00N 50°36' E 000°24'612.8
2017-May-23 01:30N 50°38' E 000°34'612.5
2017-May-23 01:00N 50°42' E 000°42'612.1
2017-May-23 00:30N 50°45' E 000°50'611.5
2017-May-23 00:00N 50°49' E 000°57'511.2
2017-May-22 23:30N 50°52' E 001°04'611.2
2017-May-22 23:00N 50°56' E 001°11'510.6
2017-May-22 22:30N 50°59' E 001°17'510.0
2017-May-22 22:00N 51°02' E 001°23'5 9.8
2017-May-22 21:30N 51°06' E 001°29'5 9.8
2017-May-22 21:00N 51°10' E 001°33'510.4
2017-May-22 20:30N 51°14' E 001°37'611.1
2017-May-22 20:00N 51°20' E 001°35'611.0
2017-May-22 19:30N 51°24' E 001°31'510.7
2017-May-22 19:00N 51°28' E 001°24'510.5
2017-May-22 18:30N 51°29' E 001°16'510.4
2017-May-22 18:00N 51°29' E 001°07'510.9
2017-May-22 17:30N 51°29' E 000°59'1 2.4
2017-May-22 16:58N 51°30' E 000°58'0 0.1
2017-May-22 16:28N 51°30' E 000°58'0 0.0
2017-May-22 15:58N 51°30' E 000°58'0 0.2
2017-May-22 15:25N 51°30' E 000°58'0 0.1
2017-May-22 14:58N 51°30' E 000°58'0 0.0
2017-May-22 13:55N 51°30' E 000°58'0 0.0
2017-May-22 13:28N 51°30' E 000°58'0 0.0
2017-May-22 12:58N 51°30' E 000°58'0 0.0
2017-May-22 12:25N 51°30' E 000°58'0 0.0
2017-May-22 11:58N 51°30' E 000°58'0 0.0
2017-May-22 11:28N 51°30' E 000°58'0 0.0
2017-May-22 10:58N 51°30' E 000°58'0 0.1
2017-May-22 10:28N 51°30' E 000°58'0 0.2
2017-May-22 09:55N 51°30' E 000°58'0 0.0
2017-May-22 09:28N 51°30' E 000°58'0 0.0
2017-May-22 08:58N 51°30' E 000°58'0 0.0
2017-May-22 08:22N 51°30' E 000°58'0 0.0
2017-May-22 07:52N 51°30' E 000°58'0 0.0
2017-May-22 07:28N 51°30' E 000°58'0 0.0
2017-May-22 06:58N 51°30' E 000°58'0 0.0
2017-May-22 06:28N 51°30' E 000°58'0 0.0
2017-May-22 05:58N 51°30' E 000°58'0 0.0
2017-May-22 05:28N 51°30' E 000°58'0 0.0
2017-May-22 04:58N 51°30' E 000°58'0 0.0
2017-May-22 04:28N 51°30' E 000°58'0 0.0
2017-May-22 03:58N 51°30' E 000°58'0 0.1
2017-May-22 03:22N 51°30' E 000°58'0 0.1
2017-May-22 02:58N 51°30' E 000°58'0 0.0
2017-May-22 02:28N 51°30' E 000°58'0 0.0
2017-May-22 01:58N 51°30' E 000°58'0 0.0
2017-May-22 01:28N 51°30' E 000°58'0 0.0
2017-May-22 00:58N 51°30' E 000°58'0 0.0
2017-May-22 00:25N 51°30' E 000°58'0 0.0
2017-May-21 23:55N 51°30' E 000°58'0 0.1
2017-May-21 22:58N 51°30' E 000°58'0 0.0
2017-May-21 22:28N 51°30' E 000°58'0 0.0
2017-May-21 21:58N 51°30' E 000°58'0 0.2
2017-May-21 21:22N 51°30' E 000°58'0 0.1
2017-May-21 20:58N 51°30' E 000°58'0 0.0
2017-May-21 20:28N 51°30' E 000°58'0 0.0
2017-May-21 19:58N 51°30' E 000°58'0 0.0
2017-May-21 19:19N 51°30' E 000°58'0 0.0
2017-May-21 18:58N 51°30' E 000°58'0 0.0
2017-May-21 18:28N 51°30' E 000°58'0 0.0
2017-May-21 17:58N 51°30' E 000°58'0 0.0
2017-May-21 17:25N 51°30' E 000°58'0 0.0
2017-May-21 16:55N 51°30' E 000°58'0 0.1
2017-May-21 16:31N 51°30' E 000°58'0 0.0
2017-May-21 16:00N 51°30' E 000°58'0 0.0
2017-May-21 15:30N 51°30' E 000°58'0 0.0
2017-May-21 15:00N 51°30' E 000°58'0 0.1
2017-May-21 14:30N 51°30' E 000°58'0 0.1
2017-May-21 13:27N 51°30' E 000°58'0 0.0
2017-May-21 12:57N 51°30' E 000°58'0 0.0
2017-May-21 12:30N 51°30' E 000°58'0 0.0
2017-May-21 12:00N 51°30' E 000°58'0 0.0
2017-May-21 11:30N 51°30' E 000°58'0 0.0
2017-May-21 11:00N 51°30' E 000°58'0 0.0
2017-May-21 10:30N 51°30' E 000°58'0 0.0
2017-May-21 10:00N 51°30' E 000°58'0 0.0
2017-May-21 09:27N 51°30' E 000°58'0 0.0
2017-May-21 08:57N 51°30' E 000°58'0 0.1
2017-May-21 08:12N 51°30' E 000°58'0 0.1
2017-May-21 07:48N 51°30' E 000°58'0 0.0
2017-May-21 07:30N 51°30' E 000°58'0 0.0
2017-May-21 06:39N 51°30' E 000°58'0 0.0
2017-May-21 06:30N 51°30' E 000°58'0 0.0
2017-May-21 05:36N 51°30' E 000°58'0 0.0
2017-May-21 05:21N 51°30' E 000°58'0 0.0
2017-May-21 04:57N 51°30' E 000°58'0 0.0
2017-May-21 04:30N 51°30' E 000°58'0 0.1
2017-May-21 03:54N 51°30' E 000°58'0 0.1
2017-May-21 03:27N 51°30' E 000°58'0 0.0
2017-May-21 03:00N 51°30' E 000°58'0 0.0
2017-May-21 02:30N 51°30' E 000°58'0 0.0
2017-May-21 02:00N 51°30' E 000°58'0 0.0
2017-May-21 01:30N 51°30' E 000°58'0 0.0
2017-May-21 01:00N 51°30' E 000°58'0 0.0
2017-May-21 00:30N 51°30' E 000°58'0 0.0
2017-May-21 00:00N 51°30' E 000°58'0 0.0
2017-May-20 23:30N 51°30' E 000°58'0 0.0
2017-May-20 22:51N 51°30' E 000°58'0 0.0
2017-May-20 22:30N 51°30' E 000°58'0 0.0
2017-May-20 22:00N 51°30' E 000°58'0 0.0
2017-May-20 21:30N 51°30' E 000°58'0 0.0
2017-May-20 21:00N 51°30' E 000°58'0 0.0
2017-May-20 20:27N 51°30' E 000°58'0 0.0
2017-May-20 19:51N 51°30' E 000°58'0 0.0
2017-May-20 19:30N 51°30' E 000°58'0 0.1
2017-May-20 19:00N 51°30' E 000°58'0 0.0
2017-May-20 18:03N 51°30' E 000°58'0 0.1
2017-May-20 17:51N 51°30' E 000°58'0 0.0
2017-May-20 17:21N 51°30' E 000°58'0 0.0
2017-May-20 17:00N 51°30' E 000°58'0 0.0
2017-May-20 16:18N 51°30' E 000°58'0 0.1
2017-May-20 15:57N 51°30' E 000°58'0 0.0
2017-May-20 15:24N 51°30' E 000°58'0 0.0
2017-May-20 15:00N 51°30' E 000°58'0 0.0
2017-May-20 14:21N 51°30' E 000°58'0 0.0
2017-May-20 13:27N 51°30' E 000°58'0 0.0
2017-May-20 12:57N 51°30' E 000°58'0 0.0
2017-May-20 12:30N 51°30' E 000°58'0 0.0
2017-May-20 12:00N 51°30' E 000°58'0 0.0
2017-May-20 11:30N 51°30' E 000°58'0 0.0
2017-May-20 10:57N 51°30' E 000°58'0 0.0
2017-May-20 10:30N 51°30' E 000°58'0 0.0
2017-May-20 09:57N 51°30' E 000°58'0 0.0
2017-May-20 09:24N 51°30' E 000°58'0 0.0
2017-May-20 09:00N 51°30' E 000°58'0 0.0
2017-May-20 08:24N 51°30' E 000°58'0 0.0
2017-May-20 08:00N 51°30' E 000°58'0 0.0
2017-May-20 07:30N 51°30' E 000°58'0 0.0
2017-May-20 07:00N 51°30' E 000°58'0 0.1
2017-May-20 06:08N 51°30' E 000°58'0 0.0
2017-May-20 05:59N 51°30' E 000°58'0 0.0
2017-May-20 05:29N 51°30' E 000°58'0 0.0
2017-May-20 04:59N 51°30' E 000°58'0 0.0
2017-May-20 04:29N 51°30' E 000°58'0 0.0
2017-May-20 03:59N 51°30' E 000°58'0 0.1
2017-May-20 02:20N 51°30' E 000°58'0 0.1
2017-May-20 01:59N 51°30' E 000°58'0 0.0
2017-May-20 01:29N 51°30' E 000°58'0 0.1
2017-May-20 00:59N 51°30' E 000°58'0 0.0
2017-May-20 00:29N 51°30' E 000°58'0 0.0
2017-May-19 23:59N 51°30' E 000°58'0 0.0
2017-May-19 23:29N 51°30' E 000°58'0 0.0
2017-May-19 22:53N 51°30' E 000°58'0 0.0
2017-May-19 22:29N 51°30' E 000°58'0 0.0
2017-May-19 21:59N 51°30' E 000°58'0 0.0
2017-May-19 21:23N 51°30' E 000°58'0 0.0
2017-May-19 20:59N 51°30' E 000°59'0 0.0
2017-May-19 20:23N 51°30' E 000°59'0 0.0
2017-May-19 19:59N 51°30' E 000°59'0 0.1
2017-May-19 19:29N 51°30' E 000°58'0 0.0
2017-May-19 18:59N 51°30' E 000°58'0 0.0
2017-May-19 18:29N 51°30' E 000°58'0 0.1
2017-May-19 17:59N 51°30' E 000°58'0 0.1
2017-May-19 17:23N 51°30' E 000°58'0 0.1
2017-May-19 16:59N 51°30' E 000°58'0 0.0
2017-May-19 16:29N 51°30' E 000°58'0 0.0
2017-May-19 15:56N 51°30' E 000°58'0 0.0
2017-May-19 15:29N 51°30' E 000°58'0 0.0
2017-May-19 14:59N 51°30' E 000°58'0 0.0
2017-May-19 13:59N 51°30' E 000°58'0 0.1
2017-May-19 13:29N 51°30' E 000°58'0 0.1
2017-May-19 12:59N 51°30' E 000°58'0 0.1
2017-May-19 12:23N 51°30' E 000°59'0 0.0
2017-May-19 11:17N 51°30' E 000°59'0 0.0
2017-May-19 10:47N 51°30' E 000°58'0 0.0
2017-May-19 10:23N 51°30' E 000°58'0 0.0
2017-May-19 09:53N 51°30' E 000°58'0 0.0
2017-May-19 08:59N 51°30' E 000°58'0 0.0
2017-May-19 08:29N 51°30' E 000°58'0 0.0
2017-May-19 07:47N 51°30' E 000°58'0 0.1
2017-May-19 07:26N 51°30' E 000°58'0 0.0
2017-May-19 06:59N 51°30' E 000°58'0 0.0
2017-May-19 06:29N 51°30' E 000°58'0 0.1
2017-May-19 05:59N 51°30' E 000°58'0 0.0
2017-May-19 05:29N 51°30' E 000°58'0 0.1
2017-May-19 04:59N 51°30' E 000°58'0 0.1
2017-May-19 04:29N 51°30' E 000°58'0 0.0
2017-May-19 03:47N 51°30' E 000°58'0 0.0
2017-May-19 03:29N 51°30' E 000°58'0 0.0
2017-May-19 02:59N 51°30' E 000°58'0 0.1
2017-May-19 02:29N 51°30' E 000°58'0 0.0
2017-May-19 01:56N 51°30' E 000°58'0 0.0
2017-May-19 01:29N 51°30' E 000°58'0 0.0
2017-May-19 00:56N 51°30' E 000°58'0 0.1
2017-May-19 00:26N 51°30' E 000°58'0 0.0
2017-May-18 23:59N 51°30' E 000°58'0 0.1
2017-May-18 23:29N 51°30' E 000°58'0 0.1
2017-May-18 23:00N 51°30' E 000°58'2 5.0
2017-May-18 22:30N 51°30' E 000°54'612.4
2017-May-18 22:00N 51°29' E 000°45'612.9
2017-May-18 21:30N 51°30' E 000°34'611.4
2017-May-18 21:00N 51°27' E 000°26'4 7.2
2017-May-18 20:31N 51°27' E 000°21'0 0.9
2017-May-18 20:01N 51°27' E 000°21'0 0.2
2017-May-18 19:31N 51°27' E 000°21'0 0.0
2017-May-18 19:01N 51°27' E 000°21'0 0.0
2017-May-18 18:30N 51°27' E 000°21'0 0.0
2017-May-18 18:01N 51°27' E 000°21'0 0.0
2017-May-18 17:31N 51°27' E 000°21'0 0.0
2017-May-18 17:01N 51°27' E 000°21'0 0.0
2017-May-18 16:30N 51°27' E 000°21'0 0.0
2017-May-18 15:59N 51°27' E 000°21'0 0.0
2017-May-18 15:31N 51°27' E 000°21'0 0.0
2017-May-18 15:00N 51°27' E 000°21'0 0.0
2017-May-18 14:00N 51°27' E 000°21'0 0.1
2017-May-18 13:31N 51°27' E 000°21'0 0.0
2017-May-18 13:01N 51°27' E 000°21'0 0.0
2017-May-18 12:31N 51°27' E 000°21'0 0.0
2017-May-18 12:01N 51°27' E 000°21'0 0.0
2017-May-18 11:31N 51°27' E 000°21'0 0.0
2017-May-18 11:01N 51°27' E 000°21'0 0.0
2017-May-18 10:31N 51°27' E 000°21'0 0.0
2017-May-18 10:00N 51°27' E 000°21'0 0.0
2017-May-18 09:30N 51°27' E 000°21'0 0.0
2017-May-18 09:00N 51°27' E 000°21'0 0.0
2017-May-18 08:31N 51°27' E 000°21'0 0.0
2017-May-18 08:01N 51°27' E 000°21'0 0.0
2017-May-18 07:31N 51°27' E 000°21'0 0.0
2017-May-18 07:01N 51°27' E 000°21'0 0.0
2017-May-18 06:30N 51°27' E 000°21'0 0.0
2017-May-18 06:00N 51°27' E 000°21'0 0.0
2017-May-18 05:30N 51°27' E 000°21'0 0.0
2017-May-18 05:01N 51°27' E 000°21'0 0.2
2017-May-18 04:31N 51°28' E 000°21'0 0.0
2017-May-18 04:00N 51°28' E 000°21'0 0.0
2017-May-18 03:31N 51°28' E 000°21'0 0.0
2017-May-18 03:01N 51°28' E 000°21'0 0.0
2017-May-18 02:30N 51°28' E 000°21'0 0.0
2017-May-18 02:00N 51°28' E 000°21'0 0.0
2017-May-18 01:31N 51°28' E 000°21'0 0.0
2017-May-18 01:01N 51°28' E 000°21'0 0.0
2017-May-18 00:31N 51°28' E 000°21'0 0.0
2017-May-18 00:01N 51°28' E 000°21'0 0.0
2017-May-17 23:31N 51°28' E 000°21'0 0.0
2017-May-17 23:01N 51°28' E 000°21'0 0.0
2017-May-17 22:31N 51°28' E 000°21'0 0.0
2017-May-17 22:01N 51°28' E 000°21'0 0.0
2017-May-17 21:30N 51°28' E 000°21'0 0.0
2017-May-17 21:00N 51°28' E 000°21'0 0.0
2017-May-17 20:31N 51°28' E 000°21'0 0.0
2017-May-17 20:00N 51°28' E 000°21'0 0.0
2017-May-17 19:31N 51°28' E 000°21'0 0.0
2017-May-17 19:01N 51°28' E 000°21'0 0.0
2017-May-17 18:30N 51°28' E 000°21'0 0.0
2017-May-17 18:00N 51°28' E 000°21'0 0.0
2017-May-17 17:31N 51°28' E 000°21'0 0.0
2017-May-17 17:01N 51°28' E 000°21'0 0.0
2017-May-17 16:30N 51°28' E 000°21'0 0.0
2017-May-17 16:00N 51°28' E 000°21'0 0.8
2017-May-17 15:30N 51°27' E 000°21'0 0.7
2017-May-17 15:00N 51°27' E 000°20'3 5.5
2017-May-17 14:30N 51°27' E 000°25'1111.4
2017-May-17 13:30N 51°30' E 000°42'612.6
2017-May-17 13:00N 51°30' E 000°52'4 6.1
2017-May-17 12:23N 51°30' E 000°58'0 0.0
2017-May-17 11:59N 51°30' E 000°58'0 0.0
2017-May-17 11:29N 51°30' E 000°58'0 0.0
2017-May-17 10:56N 51°30' E 000°58'0 0.1
2017-May-17 10:20N 51°30' E 000°59'0 0.2
2017-May-17 10:00N 51°30' E 000°58'2 4.4
2017-May-17 09:30N 51°29' E 000°56'5 9.7
2017-May-17 09:00N 51°30' E 001°04'510.1
2017-May-17 08:30N 51°29' E 001°12'5 9.7
2017-May-17 08:00N 51°29' E 001°19'4 8.0
2017-May-17 07:29N 51°28' E 001°26'1 2.1
2017-May-17 07:00N 51°28' E 001°27'3 6.1
2017-May-17 06:30N 51°26' E 001°30'510.8
2017-May-17 06:00N 51°21' E 001°35'611.9
2017-May-17 05:31N 51°15' E 001°37'611.6
2017-May-17 05:00N 51°10' E 001°38'5 9.4
2017-May-17 04:30N 51°05' E 001°38'713.6
2017-May-17 04:00N 50°60' E 001°30'713.2
2017-May-17 03:30N 50°54' E 001°25'1013.4
2017-May-17 02:46N 50°44' E 001°21'412.3
2017-May-17 02:24N 50°41' E 001°16'3912.4
2017-May-16 23:14N 50°24' E 000°21'412.8
2017-May-16 22:55N 50°23' E 000°15'512.5
2017-May-16 22:29N 50°22' E 000°07'611.4
2017-May-16 22:00N 50°21' W 000°02'611.6
2017-May-16 21:28N 50°23' W 000°11'611.3
2017-May-16 20:58N 50°26' W 000°19'511.0
2017-May-16 20:30N 50°28' W 000°26'510.8
2017-May-16 20:00N 50°30' W 000°34'510.7
2017-May-16 19:30N 50°33' W 000°42'510.5
2017-May-16 19:00N 50°35' W 000°49'510.4
2017-May-16 18:30N 50°37' W 000°57'510.7
2017-May-16 18:00N 50°41' W 001°02'510.2
2017-May-16 17:30N 50°45' W 001°07'510.7
2017-May-16 17:00N 50°48' W 001°14'510.4
2017-May-16 16:30N 50°51' W 001°20'3 6.9
2017-May-16 16:00N 50°54' W 001°23'1 1.5
2017-May-16 15:27N 50°55' W 001°23'0 0.0
2017-May-16 14:57N 50°55' W 001°23'0 0.0
2017-May-16 13:57N 50°55' W 001°23'0 0.0
2017-May-16 13:21N 50°55' W 001°23'0 0.0
2017-May-16 13:00N 50°55' W 001°23'0 0.0
2017-May-16 12:30N 50°55' W 001°23'0 0.0
2017-May-16 12:00N 50°55' W 001°23'0 0.0
2017-May-16 11:30N 50°55' W 001°23'0 0.0
2017-May-16 10:57N 50°55' W 001°23'0 0.0
2017-May-16 10:30N 50°55' W 001°23'0 0.0
2017-May-16 09:57N 50°55' W 001°23'0 0.0
2017-May-16 09:24N 50°55' W 001°23'0 0.0
2017-May-16 09:00N 50°55' W 001°23'  
Track history (hours):
 
Tides and Currents Weather Stations Pressure Air Temp Water Temp Dewpoint Dewpoint Depression Visibility Wind Speed Wind Dir Waves Ship Positions

Arklow Rock

Last reported at 2017-May-26 08:57 UTC. Time now 2017-May-26 09:21 UTC.
Position N 43°35' W 005°41'.

Length 90 m; draft 3.8 m.

Type: Cargo ship. MMSI: 246002000.

Date/timePositionNaut miles runAvg speedWind from/ knotsBaromVisibWave heightAir tempDewpointWater temp
2017-May-26 08:57N 43°35' W 005°41'0 0.0
2017-May-26 08:15N 43°35' W 005°41'0 0.0
2017-May-26 07:57N 43°35' W 005°41'0 0.0
2017-May-26 07:27N 43°35' W 005°41'0 0.0
2017-May-26 06:57N 43°35' W 005°41'0 0.0
2017-May-26 06:27N 43°35' W 005°41'0 0.0
2017-May-26 05:57N 43°35' W 005°41'0 0.0
2017-May-26 05:21N 43°35' W 005°41'0 0.0
2017-May-26 04:51N 43°35' W 005°41'0 0.0
2017-May-26 04:09N 43°35' W 005°41'0 0.0
2017-May-26 03:57N 43°35' W 005°41'0 0.0
2017-May-26 03:27N 43°35' W 005°41'0 0.0
2017-May-26 02:57N 43°35' W 005°41'0 0.0
2017-May-26 02:27N 43°35' W 005°41'0 0.0
2017-May-26 01:57N 43°35' W 005°41'0 0.0
2017-May-26 01:27N 43°35' W 005°41'0 0.0
2017-May-26 00:57N 43°35' W 005°41'0 0.0
2017-May-25 20:03N 43°35' W 005°41'0 0.0
2017-May-25 19:45N 43°35' W 005°41'0 0.0
2017-May-25 19:27N 43°35' W 005°41'0 0.0
2017-May-25 18:57N 43°35' W 005°41'0 0.0
2017-May-25 18:09N 43°35' W 005°41'0 0.0
2017-May-25 17:57N 43°35' W 005°41'0 0.0
2017-May-25 17:21N 43°35' W 005°41'0 0.0
2017-May-25 16:51N 43°35' W 005°41'0 0.0
2017-May-25 16:27N 43°35' W 005°41'0 0.0
2017-May-25 15:57N 43°35' W 005°41'0 0.0
2017-May-25 15:09N 43°35' W 005°41'0 0.0
2017-May-25 14:39N 43°35' W 005°41'0 0.0
2017-May-25 14:27N 43°35' W 005°41'0 0.0
2017-May-25 13:21N 43°35' W 005°41'0 0.0
2017-May-25 12:57N 43°35' W 005°41'0 0.0
2017-May-25 12:27N 43°35' W 005°41'0 0.0
2017-May-25 11:51N 43°35' W 005°41'0 0.0
2017-May-25 11:26N 43°35' W 005°41'0 0.0
2017-May-25 10:56N 43°35' W 005°41'0 0.0
2017-May-25 10:26N 43°35' W 005°41'0 0.0
2017-May-25 09:50N 43°35' W 005°41'0 0.0
2017-May-25 09:26N 43°35' W 005°41'0 0.0
2017-May-25 08:50N 43°35' W 005°41'0 0.0
2017-May-25 08:20N 43°35' W 005°41'0 0.0
2017-May-25 07:56N 43°35' W 005°41'0 0.0
2017-May-25 07:26N 43°35' W 005°41'0 0.0
2017-May-25 06:50N 43°35' W 005°41'0 0.0
2017-May-25 06:26N 43°35' W 005°41'0 0.0
2017-May-25 06:00N 43°35' W 005°41'1 2.1
2017-May-25 05:30N 43°36' W 005°40'3 5.3
2017-May-25 05:01N 43°38' W 005°40'3 5.7
2017-May-25 04:30N 43°41' W 005°41'6 9.8
2017-May-25 03:56N 43°47' W 005°41'4 9.9
2017-May-25 03:30N 43°51' W 005°41'710.1
2017-May-25 02:48N 43°58' W 005°42'28511.3
2017-May-24 01:31N 48°43' W 005°58'910.7
2017-May-24 00:41N 48°51' W 005°51'510.6
2017-May-24 00:11N 48°55' W 005°47'211.1
2017-May-23 23:59N 48°56' W 005°44'4212.3
2017-May-23 20:37N 49°18' W 004°49'6511.4
2017-May-23 14:55N 49°50' W 003°22'1511.4
2017-May-23 13:37N 49°58' W 003°03'212.2
2017-May-23 13:30N 49°59' W 003°01'612.5
2017-May-23 13:00N 50°01' W 002°52'713.2
2017-May-23 12:30N 50°03' W 002°42'6013.4
2017-May-23 08:02N 50°19' W 001°12'010.6
2017-May-23 08:00N 50°19' W 001°11'510.2
2017-May-23 07:30N 50°21' W 001°04'5 9.7
2017-May-23 07:00N 50°22' W 000°56'5 9.3
2017-May-23 06:30N 50°23' W 000°49'5 9.0
2017-May-23 06:00N 50°25' W 000°43'5 9.2
2017-May-23 05:30N 50°26' W 000°36'5 9.3
2017-May-23 04:56N 50°27' W 000°28'410.0
2017-May-23 04:30N 50°28' W 000°21'510.8
2017-May-23 04:00N 50°30' W 000°13'611.5
2017-May-23 03:30N 50°31' W 000°04'612.0
2017-May-23 03:00N 50°33' E 000°05'612.6
2017-May-23 02:30N 50°35' E 000°14'612.8
2017-May-23 02:00N 50°36' E 000°24'612.8
2017-May-23 01:30N 50°38' E 000°34'612.5
2017-May-23 01:00N 50°42' E 000°42'612.1
2017-May-23 00:30N 50°45' E 000°50'611.5
2017-May-23 00:00N 50°49' E 000°57'511.2
2017-May-22 23:30N 50°52' E 001°04'611.2
2017-May-22 23:00N 50°56' E 001°11'510.6
2017-May-22 22:30N 50°59' E 001°17'510.0
2017-May-22 22:00N 51°02' E 001°23'5 9.8
2017-May-22 21:30N 51°06' E 001°29'5 9.8
2017-May-22 21:00N 51°10' E 001°33'510.4
2017-May-22 20:30N 51°14' E 001°37'611.1
2017-May-22 20:00N 51°20' E 001°35'611.0
2017-May-22 19:30N 51°24' E 001°31'510.7
2017-May-22 19:00N 51°28' E 001°24'510.5
2017-May-22 18:30N 51°29' E 001°16'510.4
2017-May-22 18:00N 51°29' E 001°07'510.9
2017-May-22 17:30N 51°29' E 000°59'1 2.4
2017-May-22 16:58N 51°30' E 000°58'0 0.1
2017-May-22 16:28N 51°30' E 000°58'0 0.0
2017-May-22 15:58N 51°30' E 000°58'0 0.2
2017-May-22 15:25N 51°30' E 000°58'0 0.1
2017-May-22 14:58N 51°30' E 000°58'0 0.0
2017-May-22 13:55N 51°30' E 000°58'0 0.0
2017-May-22 13:28N 51°30' E 000°58'0 0.0
2017-May-22 12:58N 51°30' E 000°58'0 0.0
2017-May-22 12:25N 51°30' E 000°58'0 0.0
2017-May-22 11:58N 51°30' E 000°58'0 0.0
2017-May-22 11:28N 51°30' E 000°58'0 0.0
2017-May-22 10:58N 51°30' E 000°58'0 0.1
2017-May-22 10:28N 51°30' E 000°58'0 0.2
2017-May-22 09:55N 51°30' E 000°58'0 0.0
2017-May-22 09:28N 51°30' E 000°58'0 0.0
2017-May-22 08:58N 51°30' E 000°58'0 0.0
2017-May-22 08:22N 51°30' E 000°58'0 0.0
2017-May-22 07:52N 51°30' E 000°58'0 0.0
2017-May-22 07:28N 51°30' E 000°58'0 0.0
2017-May-22 06:58N 51°30' E 000°58'0 0.0
2017-May-22 06:28N 51°30' E 000°58'0 0.0
2017-May-22 05:58N 51°30' E 000°58'0 0.0
2017-May-22 05:28N 51°30' E 000°58'0 0.0
2017-May-22 04:58N 51°30' E 000°58'0 0.0
2017-May-22 04:28N 51°30' E 000°58'0 0.0
2017-May-22 03:58N 51°30' E 000°58'0 0.1
2017-May-22 03:22N 51°30' E 000°58'0 0.1
2017-May-22 02:58N 51°30' E 000°58'0 0.0
2017-May-22 02:28N 51°30' E 000°58'0 0.0
2017-May-22 01:58N 51°30' E 000°58'0 0.0
2017-May-22 01:28N 51°30' E 000°58'0 0.0
2017-May-22 00:58N 51°30' E 000°58'0 0.0
2017-May-22 00:25N 51°30' E 000°58'0 0.0
2017-May-21 23:55N 51°30' E 000°58'0 0.1
2017-May-21 22:58N 51°30' E 000°58'0 0.0
2017-May-21 22:28N 51°30' E 000°58'0 0.0
2017-May-21 21:58N 51°30' E 000°58'0 0.2
2017-May-21 21:22N 51°30' E 000°58'0 0.1
2017-May-21 20:58N 51°30' E 000°58'0 0.0
2017-May-21 20:28N 51°30' E 000°58'0 0.0
2017-May-21 19:58N 51°30' E 000°58'0 0.0
2017-May-21 19:19N 51°30' E 000°58'0 0.0
2017-May-21 18:58N 51°30' E 000°58'0 0.0
2017-May-21 18:28N 51°30' E 000°58'0 0.0
2017-May-21 17:58N 51°30' E 000°58'0 0.0
2017-May-21 17:25N 51°30' E 000°58'0 0.0
2017-May-21 16:55N 51°30' E 000°58'0 0.1
2017-May-21 16:31N 51°30' E 000°58'0 0.0
2017-May-21 16:00N 51°30' E 000°58'0 0.0
2017-May-21 15:30N 51°30' E 000°58'0 0.0
2017-May-21 15:00N 51°30' E 000°58'0 0.1
2017-May-21 14:30N 51°30' E 000°58'0 0.1
2017-May-21 13:27N 51°30' E 000°58'0 0.0
2017-May-21 12:57N 51°30' E 000°58'0 0.0
2017-May-21 12:30N 51°30' E 000°58'0 0.0
2017-May-21 12:00N 51°30' E 000°58'0 0.0
2017-May-21 11:30N 51°30' E 000°58'0 0.0
2017-May-21 11:00N 51°30' E 000°58'0 0.0
2017-May-21 10:30N 51°30' E 000°58'0 0.0
2017-May-21 10:00N 51°30' E 000°58'0 0.0
2017-May-21 09:27N 51°30' E 000°58'0 0.0
2017-May-21 08:57N 51°30' E 000°58'0 0.1
2017-May-21 08:12N 51°30' E 000°58'0 0.1
2017-May-21 07:48N 51°30' E 000°58'0 0.0
2017-May-21 07:30N 51°30' E 000°58'0 0.0
2017-May-21 06:39N 51°30' E 000°58'0 0.0
2017-May-21 06:30N 51°30' E 000°58'0 0.0
2017-May-21 05:36N 51°30' E 000°58'0 0.0
2017-May-21 05:21N 51°30' E 000°58'0 0.0
2017-May-21 04:57N 51°30' E 000°58'0 0.0
2017-May-21 04:30N 51°30' E 000°58'0 0.1
2017-May-21 03:54N 51°30' E 000°58'0 0.1
2017-May-21 03:27N 51°30' E 000°58'0 0.0
2017-May-21 03:00N 51°30' E 000°58'0 0.0
2017-May-21 02:30N 51°30' E 000°58'0 0.0
2017-May-21 02:00N 51°30' E 000°58'0 0.0
2017-May-21 01:30N 51°30' E 000°58'0 0.0
2017-May-21 01:00N 51°30' E 000°58'0 0.0
2017-May-21 00:30N 51°30' E 000°58'0 0.0
2017-May-21 00:00N 51°30' E 000°58'0 0.0
2017-May-20 23:30N 51°30' E 000°58'0 0.0
2017-May-20 22:51N 51°30' E 000°58'0 0.0
2017-May-20 22:30N 51°30' E 000°58'0 0.0
2017-May-20 22:00N 51°30' E 000°58'0 0.0
2017-May-20 21:30N 51°30' E 000°58'0 0.0
2017-May-20 21:00N 51°30' E 000°58'0 0.0
2017-May-20 20:27N 51°30' E 000°58'0 0.0
2017-May-20 19:51N 51°30' E 000°58'0 0.0
2017-May-20 19:30N 51°30' E 000°58'0 0.1
2017-May-20 19:00N 51°30' E 000°58'0 0.0
2017-May-20 18:03N 51°30' E 000°58'0 0.1
2017-May-20 17:51N 51°30' E 000°58'0 0.0
2017-May-20 17:21N 51°30' E 000°58'0 0.0
2017-May-20 17:00N 51°30' E 000°58'0 0.0
2017-May-20 16:18N 51°30' E 000°58'0 0.1
2017-May-20 15:57N 51°30' E 000°58'0 0.0
2017-May-20 15:24N 51°30' E 000°58'0 0.0
2017-May-20 15:00N 51°30' E 000°58'0 0.0
2017-May-20 14:21N 51°30' E 000°58'0 0.0
2017-May-20 13:27N 51°30' E 000°58'0 0.0
2017-May-20 12:57N 51°30' E 000°58'0 0.0
2017-May-20 12:30N 51°30' E 000°58'0 0.0
2017-May-20 12:00N 51°30' E 000°58'0 0.0
2017-May-20 11:30N 51°30' E 000°58'0 0.0
2017-May-20 10:57N 51°30' E 000°58'0 0.0
2017-May-20 10:30N 51°30' E 000°58'0 0.0
2017-May-20 09:57N 51°30' E 000°58'0 0.0
2017-May-20 09:24N 51°30' E 000°58'0 0.0
2017-May-20 09:00N 51°30' E 000°58'0 0.0
2017-May-20 08:24N 51°30' E 000°58'0 0.0
2017-May-20 08:00N 51°30' E 000°58'0 0.0
2017-May-20 07:30N 51°30' E 000°58'0 0.0
2017-May-20 07:00N 51°30' E 000°58'0 0.1
2017-May-20 06:08N 51°30' E 000°58'0 0.0
2017-May-20 05:59N 51°30' E 000°58'0 0.0
2017-May-20 05:29N 51°30' E 000°58'0 0.0
2017-May-20 04:59N 51°30' E 000°58'0 0.0
2017-May-20 04:29N 51°30' E 000°58'0 0.0
2017-May-20 03:59N 51°30' E 000°58'0 0.1
2017-May-20 02:20N 51°30' E 000°58'0 0.1
2017-May-20 01:59N 51°30' E 000°58'0 0.0
2017-May-20 01:29N 51°30' E 000°58'0 0.1
2017-May-20 00:59N 51°30' E 000°58'0 0.0
2017-May-20 00:29N 51°30' E 000°58'0 0.0
2017-May-19 23:59N 51°30' E 000°58'0 0.0
2017-May-19 23:29N 51°30' E 000°58'0 0.0
2017-May-19 22:53N 51°30' E 000°58'0 0.0
2017-May-19 22:29N 51°30' E 000°58'0 0.0
2017-May-19 21:59N 51°30' E 000°58'0 0.0
2017-May-19 21:23N 51°30' E 000°58'0 0.0
2017-May-19 20:59N 51°30' E 000°59'0 0.0
2017-May-19 20:23N 51°30' E 000°59'0 0.0
2017-May-19 19:59N 51°30' E 000°59'0 0.1
2017-May-19 19:29N 51°30' E 000°58'0 0.0
2017-May-19 18:59N 51°30' E 000°58'0 0.0
2017-May-19 18:29N 51°30' E 000°58'0 0.1
2017-May-19 17:59N 51°30' E 000°58'0 0.1
2017-May-19 17:23N 51°30' E 000°58'0 0.1
2017-May-19 16:59N 51°30' E 000°58'0 0.0
2017-May-19 16:29N 51°30' E 000°58'0 0.0
2017-May-19 15:56N 51°30' E 000°58'0 0.0
2017-May-19 15:29N 51°30' E 000°58'0 0.0
2017-May-19 14:59N 51°30' E 000°58'0 0.0
2017-May-19 13:59N 51°30' E 000°58'0 0.1
2017-May-19 13:29N 51°30' E 000°58'0 0.1
2017-May-19 12:59N 51°30' E 000°58'0 0.1
2017-May-19 12:23N 51°30' E 000°59'0 0.0
2017-May-19 11:17N 51°30' E 000°59'0 0.0
2017-May-19 10:47N 51°30' E 000°58'0 0.0
2017-May-19 10:23N 51°30' E 000°58'0 0.0
2017-May-19 09:53N 51°30' E 000°58'0 0.0
2017-May-19 08:59N 51°30' E 000°58'0 0.0
2017-May-19 08:29N 51°30' E 000°58'0 0.0
2017-May-19 07:47N 51°30' E 000°58'0 0.1
2017-May-19 07:26N 51°30' E 000°58'0 0.0
2017-May-19 06:59N 51°30' E 000°58'0 0.0
2017-May-19 06:29N 51°30' E 000°58'0 0.1
2017-May-19 05:59N 51°30' E 000°58'0 0.0
2017-May-19 05:29N 51°30' E 000°58'0 0.1
2017-May-19 04:59N 51°30' E 000°58'0 0.1
2017-May-19 04:29N 51°30' E 000°58'0 0.0
2017-May-19 03:47N 51°30' E 000°58'0 0.0
2017-May-19 03:29N 51°30' E 000°58'0 0.0
2017-May-19 02:59N 51°30' E 000°58'0 0.1
2017-May-19 02:29N 51°30' E 000°58'0 0.0
2017-May-19 01:56N 51°30' E 000°58'0 0.0
2017-May-19 01:29N 51°30' E 000°58'0 0.0
2017-May-19 00:56N 51°30' E 000°58'0 0.1
2017-May-19 00:26N 51°30' E 000°58'0 0.0
2017-May-18 23:59N 51°30' E 000°58'0 0.1
2017-May-18 23:29N 51°30' E 000°58'0 0.1
2017-May-18 23:00N 51°30' E 000°58'2 5.0
2017-May-18 22:30N 51°30' E 000°54'612.4
2017-May-18 22:00N 51°29' E 000°45'612.9
2017-May-18 21:30N 51°30' E 000°34'611.4
2017-May-18 21:00N 51°27' E 000°26'4 7.2
2017-May-18 20:31N 51°27' E 000°21'0 0.9
2017-May-18 20:01N 51°27' E 000°21'0 0.2
2017-May-18 19:31N 51°27' E 000°21'0 0.0
2017-May-18 19:01N 51°27' E 000°21'0 0.0
2017-May-18 18:30N 51°27' E 000°21'0 0.0
2017-May-18 18:01N 51°27' E 000°21'0 0.0
2017-May-18 17:31N 51°27' E 000°21'0 0.0
2017-May-18 17:01N 51°27' E 000°21'0 0.0
2017-May-18 16:30N 51°27' E 000°21'0 0.0
2017-May-18 15:59N 51°27' E 000°21'0 0.0
2017-May-18 15:31N 51°27' E 000°21'0 0.0
2017-May-18 15:00N 51°27' E 000°21'0 0.0
2017-May-18 14:00N 51°27' E 000°21'0 0.1
2017-May-18 13:31N 51°27' E 000°21'0 0.0
2017-May-18 13:01N 51°27' E 000°21'0 0.0
2017-May-18 12:31N 51°27' E 000°21'0 0.0
2017-May-18 12:01N 51°27' E 000°21'0 0.0
2017-May-18 11:31N 51°27' E 000°21'0 0.0
2017-May-18 11:01N 51°27' E 000°21'0 0.0
2017-May-18 10:31N 51°27' E 000°21'0 0.0
2017-May-18 10:00N 51°27' E 000°21'0 0.0
2017-May-18 09:30N 51°27' E 000°21'0 0.0
2017-May-18 09:00N 51°27' E 000°21'0 0.0
2017-May-18 08:31N 51°27' E 000°21'0 0.0
2017-May-18 08:01N 51°27' E 000°21'0 0.0
2017-May-18 07:31N 51°27' E 000°21'0 0.0
2017-May-18 07:01N 51°27' E 000°21'0 0.0
2017-May-18 06:30N 51°27' E 000°21'0 0.0
2017-May-18 06:00N 51°27' E 000°21'0 0.0
2017-May-18 05:30N 51°27' E 000°21'0 0.0
2017-May-18 05:01N 51°27' E 000°21'0 0.2
2017-May-18 04:31N 51°28' E 000°21'0 0.0
2017-May-18 04:00N 51°28' E 000°21'0 0.0
2017-May-18 03:31N 51°28' E 000°21'0 0.0
2017-May-18 03:01N 51°28' E 000°21'0 0.0
2017-May-18 02:30N 51°28' E 000°21'0 0.0
2017-May-18 02:00N 51°28' E 000°21'0 0.0
2017-May-18 01:31N 51°28' E 000°21'0 0.0
2017-May-18 01:01N 51°28' E 000°21'0 0.0
2017-May-18 00:31N 51°28' E 000°21'0 0.0
2017-May-18 00:01N 51°28' E 000°21'0 0.0
2017-May-17 23:31N 51°28' E 000°21'0 0.0
2017-May-17 23:01N 51°28' E 000°21'0 0.0
2017-May-17 22:31N 51°28' E 000°21'0 0.0
2017-May-17 22:01N 51°28' E 000°21'0 0.0
2017-May-17 21:30N 51°28' E 000°21'0 0.0
2017-May-17 21:00N 51°28' E 000°21'0 0.0
2017-May-17 20:31N 51°28' E 000°21'0 0.0
2017-May-17 20:00N 51°28' E 000°21'0 0.0
2017-May-17 19:31N 51°28' E 000°21'0 0.0
2017-May-17 19:01N 51°28' E 000°21'0 0.0
2017-May-17 18:30N 51°28' E 000°21'0 0.0
2017-May-17 18:00N 51°28' E 000°21'0 0.0
2017-May-17 17:31N 51°28' E 000°21'0 0.0
2017-May-17 17:01N 51°28' E 000°21'0 0.0
2017-May-17 16:30N 51°28' E 000°21'0 0.0
2017-May-17 16:00N 51°28' E 000°21'0 0.8
2017-May-17 15:30N 51°27' E 000°21'0 0.7
2017-May-17 15:00N 51°27' E 000°20'3 5.5
2017-May-17 14:30N 51°27' E 000°25'1111.4
2017-May-17 13:30N 51°30' E 000°42'612.6
2017-May-17 13:00N 51°30' E 000°52'4 6.1
2017-May-17 12:23N 51°30' E 000°58'0 0.0
2017-May-17 11:59N 51°30' E 000°58'0 0.0
2017-May-17 11:29N 51°30' E 000°58'0 0.0
2017-May-17 10:56N 51°30' E 000°58'0 0.1
2017-May-17 10:20N 51°30' E 000°59'0 0.2
2017-May-17 10:00N 51°30' E 000°58'2 4.4
2017-May-17 09:30N 51°29' E 000°56'5 9.7
2017-May-17 09:00N 51°30' E 001°04'510.1
2017-May-17 08:30N 51°29' E 001°12'5 9.7
2017-May-17 08:00N 51°29' E 001°19'4 8.0
2017-May-17 07:29N 51°28' E 001°26'1 2.1
2017-May-17 07:00N 51°28' E 001°27'3 6.1
2017-May-17 06:30N 51°26' E 001°30'510.8
2017-May-17 06:00N 51°21' E 001°35'611.9
2017-May-17 05:31N 51°15' E 001°37'611.6
2017-May-17 05:00N 51°10' E 001°38'5 9.4
2017-May-17 04:30N 51°05' E 001°38'713.6
2017-May-17 04:00N 50°60' E 001°30'713.2
2017-May-17 03:30N 50°54' E 001°25'1013.4
2017-May-17 02:46N 50°44' E 001°21'412.3
2017-May-17 02:24N 50°41' E 001°16'3912.4
2017-May-16 23:14N 50°24' E 000°21'412.8
2017-May-16 22:55N 50°23' E 000°15'512.5
2017-May-16 22:29N 50°22' E 000°07'611.4
2017-May-16 22:00N 50°21' W 000°02'611.6
2017-May-16 21:28N 50°23' W 000°11'611.3
2017-May-16 20:58N 50°26' W 000°19'511.0
2017-May-16 20:30N 50°28' W 000°26'510.8
2017-May-16 20:00N 50°30' W 000°34'510.7
2017-May-16 19:30N 50°33' W 000°42'510.5
2017-May-16 19:00N 50°35' W 000°49'510.4
2017-May-16 18:30N 50°37' W 000°57'510.7
2017-May-16 18:00N 50°41' W 001°02'510.2
2017-May-16 17:30N 50°45' W 001°07'510.7
2017-May-16 17:00N 50°48' W 001°14'510.4
2017-May-16 16:30N 50°51' W 001°20'3 6.9
2017-May-16 16:00N 50°54' W 001°23'1 1.5
2017-May-16 15:27N 50°55' W 001°23'0 0.0
2017-May-16 14:57N 50°55' W 001°23'0 0.0
2017-May-16 13:57N 50°55' W 001°23'0 0.0
2017-May-16 13:21N 50°55' W 001°23'0 0.0
2017-May-16 13:00N 50°55' W 001°23'0 0.0
2017-May-16 12:30N 50°55' W 001°23'0 0.0
2017-May-16 12:00N 50°55' W 001°23'0 0.0
2017-May-16 11:30N 50°55' W 001°23'0 0.0
2017-May-16 10:57N 50°55' W 001°23'0 0.0
2017-May-16 10:30N 50°55' W 001°23'0 0.0
2017-May-16 09:57N 50°55' W 001°23'0 0.0
2017-May-16 09:24N 50°55' W 001°23'0 0.0
2017-May-16 09:00N 50°55' W 001°23'  

Dump ship's entire track history